Terminal Aerodrome Forecast
Issued by NWS

Home | Current Version | Previous Version | Text Only | Print | Product List | Glossary On
Versions: 1 2 3 4 5 6 7 8 9 10 11 12 13 14 15 16 17 18 19 20 21 22 23 24 25 26 27 28 29 30 31
436
FTUS41 KPBZ 240527
TAFLBE
TAF
KLBE 240527Z 2406/2506 22006KT P6SM OVC015
     FM240900 32004KT P6SM OVC010
     FM241100 36003KT P6SM VCSH OVC008
     FM241300 01003KT 3SM -SHRA BR OVC008
     FM241700 05006KT 3SM +SHRA OVC008
     FM242200 09009KT 2SM SHRA OVC010
     FM250000 11010G19KT 2SM -SHRA OVC015=

USA.gov is the U.S. government's official web portal to all federal, state and local government web resources and services.